Terminal Aerodrome Forecast
Issued by NWS

Home | Current Version | Previous Version | Text Only | Print | Product List | Glossary On
Versions: 1 2 3 4 5 6 7 8 9 10 11 12 13 14 15 16 17 18 19 20 21
586
FTUS46 KSTO 190657 AAA
TAFSAC
TAF AMD
KSAC 190657Z 1907/2006 16014G26KT P6SM -SHRA BKN035
     FM191000 15012KT 4SM -SHRA OVC015
     FM192000 17008KT P6SM -SHRA BKN030=

USA.gov is the U.S. government's official web portal to all federal, state and local government web resources and services.